createdAt,value
2023-05-03T00:00:09.378Z,102430.13
2023-05-03T00:03:13.570Z,102435.41
2023-05-03T00:06:17.135Z,102431.00
2023-05-03T00:09:19.825Z,102423.97
2023-05-03T00:12:22.487Z,102430.13
2023-05-03T00:15:25.383Z,102430.97
2023-05-03T00:18:30.401Z,102431.91
2023-05-03T00:21:32.984Z,102423.94
2023-05-03T00:24:35.741Z,102427.47
2023-05-03T00:27:38.469Z,102431.81
2023-05-03T00:30:41.218Z,102422.13
2023-05-03T00:33:45.182Z,102429.19
2023-05-03T00:36:47.859Z,102424.84
2023-05-03T00:39:50.532Z,102423.03
2023-05-03T00:42:53.109Z,102428.25
2023-05-03T00:46:04.621Z,102430.03
2023-05-03T00:49:17.119Z,102437.06
2023-05-03T00:52:19.709Z,102430.84
2023-05-03T00:55:22.705Z,102437.03
2023-05-03T00:58:25.860Z,102431.78
2023-05-03T01:01:29.199Z,102438.75
2023-05-03T01:04:33.496Z,102437.00
2023-05-03T01:07:45.271Z,102435.22
2023-05-03T01:10:55.928Z,102437.88
2023-05-03T01:14:05.460Z,102438.75
2023-05-03T01:17:12.651Z,102436.91
2023-05-03T01:20:24.769Z,102439.50
2023-05-03T01:23:37.342Z,102438.63
2023-05-03T01:26:41.332Z,102446.50
2023-05-03T01:29:44.739Z,102448.28
2023-05-03T01:32:56.032Z,102448.25
2023-05-03T01:36:03.339Z,102454.41
2023-05-03T01:39:11.722Z,102453.59
2023-05-03T01:42:16.770Z,102453.63
2023-05-03T01:45:20.084Z,102453.53
2023-05-03T01:48:25.665Z,102450.84
2023-05-03T01:51:28.320Z,102457.88
2023-05-03T01:54:31.104Z,102455.19
2023-05-03T01:57:35.047Z,102456.03
2023-05-03T02:00:37.599Z,102450.75
2023-05-03T02:03:40.172Z,102459.50
2023-05-03T02:06:42.775Z,102460.34
2023-05-03T02:09:45.382Z,102464.84
2023-05-03T02:12:49.401Z,102462.19
2023-05-03T02:15:51.998Z,102462.22
2023-05-03T02:18:59.194Z,102475.34
2023-05-03T02:22:01.838Z,102466.56
2023-05-03T02:25:04.973Z,102472.75
2023-05-03T02:28:08.996Z,102470.09
2023-05-03T02:31:13.446Z,102473.47
2023-05-03T02:34:16.084Z,102480.53
2023-05-03T02:37:18.719Z,102472.75
2023-05-03T02:40:21.670Z,102471.03
2023-05-03T02:43:25.652Z,102478.97
2023-05-03T02:46:28.276Z,102480.69
2023-05-03T02:49:31.190Z,102474.47
2023-05-03T02:52:33.798Z,102482.28
2023-05-03T02:55:36.641Z,102480.53
2023-05-03T02:58:40.793Z,102477.03
2023-05-03T03:01:43.728Z,102481.53
2023-05-03T03:04:46.410Z,102488.56
2023-05-03T03:07:49.119Z,102492.09
2023-05-03T03:10:51.757Z,102492.19
2023-05-03T03:13:59.398Z,102487.81
2023-05-03T03:17:02.425Z,102487.94
2023-05-03T03:20:06.108Z,102494.97
2023-05-03T03:23:08.704Z,102499.41
2023-05-03T03:26:11.294Z,102490.63
2023-05-03T03:29:15.246Z,102489.78
2023-05-03T03:32:17.833Z,102493.28
2023-05-03T03:35:21.437Z,102499.50
2023-05-03T03:38:24.008Z,102493.31
2023-05-03T03:41:26.683Z,102491.56
2023-05-03T03:44:30.779Z,102497.78
2023-05-03T03:47:33.626Z,102495.09
2023-05-03T03:50:36.236Z,102481.06
2023-05-03T03:53:38.817Z,102486.38
2023-05-03T03:56:41.432Z,102492.53
2023-05-03T03:59:45.467Z,102485.53
2023-05-03T04:02:48.874Z,102488.16
2023-05-03T04:05:52.120Z,102479.41
2023-05-03T04:08:54.692Z,102476.75
2023-05-03T04:11:57.280Z,102482.06
2023-05-03T04:15:01.260Z,102482.94
2023-05-03T04:18:04.011Z,102482.94
2023-05-03T04:21:06.741Z,102487.34
2023-05-03T04:24:09.800Z,102488.25
2023-05-03T04:27:14.712Z,102488.22
2023-05-03T04:30:19.125Z,102481.22
2023-05-03T04:33:21.993Z,102489.13
2023-05-03T04:36:25.759Z,102494.41
2023-05-03T04:39:28.480Z,102493.53
2023-05-03T04:42:31.253Z,102499.69
2023-05-03T04:45:35.232Z,102504.97
2023-05-03T04:48:38.130Z,102501.47
2023-05-03T04:51:40.802Z,102512.91
2023-05-03T04:54:43.414Z,102513.78
2023-05-03T04:57:45.996Z,102516.41
2023-05-03T05:00:50.254Z,102527.84
2023-05-03T05:03:53.374Z,102534.00
2023-05-03T05:06:56.136Z,102539.28
2023-05-03T05:09:58.776Z,102526.06
2023-05-03T05:13:01.370Z,102529.56
2023-05-03T05:16:05.900Z,102528.69
2023-05-03T05:19:09.500Z,102534.81
2023-05-03T05:22:12.129Z,102541.84
2023-05-03T05:25:14.903Z,102546.22
2023-05-03T05:28:17.763Z,102551.50
2023-05-03T05:31:21.848Z,102543.56
2023-05-03T05:34:24.473Z,102545.31
2023-05-03T05:37:28.128Z,102549.69
2023-05-03T05:40:30.789Z,102553.22
2023-05-03T05:43:33.507Z,102560.25
2023-05-03T05:46:37.476Z,102563.78
2023-05-03T05:49:40.152Z,102559.31
2023-05-03T05:52:42.747Z,102565.47
2023-05-03T05:55:45.496Z,102560.13
2023-05-03T05:58:48.095Z,102560.94
2023-05-03T06:01:52.086Z,102561.78
2023-05-03T06:04:54.736Z,102559.97
2023-05-03T06:07:57.433Z,102562.50
2023-05-03T06:11:00.147Z,102569.44
2023-05-03T06:14:03.898Z,102564.19
2023-05-03T06:17:07.861Z,102560.47
2023-05-03T06:20:12.798Z,102559.47
2023-05-03T06:23:15.421Z,102562.13
2023-05-03T06:26:18.173Z,102567.31
2023-05-03T06:29:20.788Z,102560.41
2023-05-03T06:32:24.834Z,102566.44
2023-05-03T06:35:28.257Z,102570.72
2023-05-03T06:38:30.835Z,102568.09
2023-05-03T06:41:33.965Z,102571.38
2023-05-03T06:44:36.809Z,102582.88
2023-05-03T06:47:42.824Z,102587.34
2023-05-03T06:50:45.719Z,102579.09
2023-05-03T06:53:48.291Z,102576.31
2023-05-03T06:56:50.870Z,102585.38
2023-05-03T06:59:53.443Z,102574.84
2023-05-03T07:02:57.619Z,102577.34
2023-05-03T07:06:00.753Z,102577.66
2023-05-03T07:09:03.766Z,102575.63
2023-05-03T07:12:06.608Z,102575.44
2023-05-03T07:15:10.548Z,102572.72
2023-05-03T07:18:14.556Z,102575.16
2023-05-03T07:21:17.197Z,102576.03
2023-05-03T07:24:19.796Z,102582.59
2023-05-03T07:27:22.627Z,102575.50
2023-05-03T07:30:25.523Z,102577.75
2023-05-03T07:33:29.525Z,102566.88
2023-05-03T07:36:32.182Z,102572.75
2023-05-03T07:39:34.774Z,102583.19
2023-05-03T07:42:37.498Z,102579.91
2023-05-03T07:45:40.156Z,102580.47
2023-05-03T07:48:44.096Z,102574.09
2023-05-03T07:51:46.704Z,102568.63
2023-05-03T07:54:49.314Z,102564.72
2023-05-03T07:57:53.070Z,102568.09
2023-05-03T08:00:55.926Z,102577.81
2023-05-03T08:04:00.156Z,102577.88
2023-05-03T08:07:04.080Z,102571.50
2023-05-03T08:10:07.789Z,102579.63
2023-05-03T08:13:10.492Z,102572.59
2023-05-03T08:16:14.483Z,102574.25
2023-05-03T08:19:18.490Z,102575.97
2023-05-03T08:22:21.099Z,102579.34
2023-05-03T08:25:24.929Z,102587.03
2023-05-03T08:28:27.823Z,102584.38
2023-05-03T08:31:31.124Z,102583.44
2023-05-03T08:34:35.147Z,102587.69
2023-05-03T08:37:40.968Z,102577.16
2023-05-03T08:40:44.176Z,102584.13
2023-05-03T08:43:47.187Z,102584.13
2023-05-03T08:46:50.169Z,102586.59
2023-05-03T08:49:54.678Z,102586.38
2023-05-03T08:52:57.840Z,102587.91
2023-05-03T08:56:00.446Z,102594.97
2023-05-03T08:59:07.756Z,102595.19
2023-05-03T09:02:11.788Z,102608.75
2023-05-03T09:05:36.292Z,102591.47
2023-05-03T09:08:44.355Z,102598.41
2023-05-03T09:11:46.934Z,102612.25
2023-05-03T09:14:50.374Z,102598.63
2023-05-03T09:18:12.018Z,102609.91
2023-05-03T09:21:20.314Z,102607.81
2023-05-03T09:24:23.247Z,102608.19
2023-05-03T09:27:26.882Z,102607.88
2023-05-03T09:30:29.499Z,102605.72
2023-05-03T09:33:32.118Z,102613.91
2023-05-03T09:36:47.901Z,102617.69
2023-05-03T09:40:07.702Z,102618.44
2023-05-03T09:43:11.671Z,102607.81
2023-05-03T09:46:15.191Z,102612.13
2023-05-03T09:49:18.698Z,102607.63
2023-05-03T09:52:23.284Z,102600.34
2023-05-03T09:55:27.740Z,102596.53
2023-05-03T09:58:30.878Z,102598.38
2023-05-03T10:01:33.590Z,102592.50
2023-05-03T10:04:40.986Z,102591.22
2023-05-03T10:07:45.806Z,102598.63
2023-05-03T10:10:54.200Z,102598.38
2023-05-03T10:13:57.297Z,102588.19
2023-05-03T10:17:03.523Z,102589.41
2023-05-03T10:20:15.973Z,102580.75
2023-05-03T10:23:19.953Z,102590.72
2023-05-03T10:26:22.696Z,102584.66
2023-05-03T10:29:51.851Z,102584.88
2023-05-03T10:32:55.121Z,102574.72
2023-05-03T10:35:59.109Z,102581.31
2023-05-03T10:39:04.527Z,102574.38
2023-05-03T10:42:09.815Z,102563.34
2023-05-03T10:45:22.181Z,102574.72
2023-05-03T10:48:24.839Z,102563.34
2023-05-03T10:51:37.199Z,102566.34
2023-05-03T10:54:41.416Z,102558.88
2023-05-03T10:57:46.724Z,102550.03
2023-05-03T11:00:52.196Z,102557.03
2023-05-03T11:04:03.349Z,102549.72
2023-05-03T11:07:06.068Z,102556.13
2023-05-03T11:10:20.358Z,102549.44
2023-05-03T11:13:23.074Z,102551.53
2023-05-03T11:16:27.154Z,102552.97
2023-05-03T11:19:30.410Z,102555.22
2023-05-03T11:22:33.694Z,102551.59
2023-05-03T11:25:38.574Z,102548.59
2023-05-03T11:28:41.815Z,102546.22
2023-05-03T11:31:44.495Z,102553.09
2023-05-03T11:34:47.182Z,102553.84
2023-05-03T11:37:49.735Z,102551.72
2023-05-03T11:40:53.750Z,102553.09
2023-05-03T11:44:07.902Z,102551.84
2023-05-03T11:47:18.581Z,102547.16
2023-05-03T11:50:28.998Z,102545.25
2023-05-03T11:53:31.644Z,102546.47
2023-05-03T11:56:35.709Z,102544.75
2023-05-03T11:59:39.384Z,102540.00
2023-05-03T12:02:42.400Z,102537.59
2023-05-03T12:05:45.751Z,102542.41
2023-05-03T12:08:48.856Z,102538.72
2023-05-03T12:11:54.982Z,102532.63
2023-05-03T12:14:59.896Z,102536.72
2023-05-03T12:18:04.662Z,102533.41
2023-05-03T12:21:30.729Z,102529.09
2023-05-03T12:24:33.047Z,102524.50
2023-05-03T12:27:39.197Z,102525.34
2023-05-03T12:30:45.982Z,102517.75
2023-05-03T12:34:07.221Z,102516.69
2023-05-03T12:37:12.203Z,102511.38
2023-05-03T12:40:32.373Z,102504.16
2023-05-03T12:43:38.307Z,102509.31
2023-05-03T12:46:44.814Z,102503.84
2023-05-03T12:49:51.893Z,102509.88
2023-05-03T12:52:54.853Z,102495.28
2023-05-03T12:55:58.656Z,102492.78
2023-05-03T12:59:35.155Z,102486.78
2023-05-03T13:05:35.227Z,102481.28
2023-05-03T13:08:41.084Z,102476.09
2023-05-03T13:11:52.445Z,102473.63
2023-05-03T13:14:56.796Z,102473.19
2023-05-03T13:18:01.539Z,102466.38
2023-05-03T13:21:04.952Z,102469.78
2023-05-03T13:24:08.414Z,102464.59
2023-05-03T13:27:12.608Z,102463.78
2023-05-03T13:30:16.850Z,102456.44
2023-05-03T13:33:19.562Z,102456.91
2023-05-03T13:36:22.700Z,102450.13
2023-05-03T13:39:25.396Z,102453.69
2023-05-03T13:42:28.091Z,102441.59
2023-05-03T13:45:32.062Z,102451.34
2023-05-03T13:48:34.667Z,102446.81
2023-05-03T13:51:38.448Z,102443.94
2023-05-03T13:54:42.238Z,102447.13
2023-05-03T13:57:44.977Z,102438.09
2023-05-03T14:00:48.878Z,102440.19
2023-05-03T14:03:51.619Z,102441.28
2023-05-03T14:06:54.313Z,102429.25
2023-05-03T14:09:57.466Z,102430.34
2023-05-03T14:13:00.318Z,102415.31
2023-05-03T14:16:04.717Z,102420.63
2023-05-03T14:19:07.374Z,102418.09
2023-05-03T14:22:10.150Z,102420.59
2023-05-03T14:25:13.249Z,102408.59
2023-05-03T14:28:15.822Z,102413.13
2023-05-03T14:31:19.953Z,102417.28
2023-05-03T14:34:22.578Z,102407.34
2023-05-03T14:37:25.151Z,102411.69
2023-05-03T14:40:27.724Z,102410.06
2023-05-03T14:43:30.397Z,102410.28
2023-05-03T14:46:34.403Z,102402.75
2023-05-03T14:49:40.589Z,102404.34
2023-05-03T14:52:43.193Z,102401.00
2023-05-03T14:55:47.302Z,102405.00
2023-05-03T14:58:50.299Z,102406.75
2023-05-03T15:01:54.512Z,102390.16
2023-05-03T15:04:57.412Z,102391.22
2023-05-03T15:08:00.296Z,102384.72
2023-05-03T15:11:03.046Z,102389.97
2023-05-03T15:14:05.899Z,102384.03
2023-05-03T15:17:10.035Z,102385.56
2023-05-03T15:20:15.261Z,102389.66
2023-05-03T15:23:17.960Z,102382.63
2023-05-03T15:26:22.231Z,102386.69
2023-05-03T15:29:24.798Z,102378.78
2023-05-03T15:32:28.717Z,102381.78
2023-05-03T15:35:31.398Z,102378.19
2023-05-03T15:38:33.991Z,102381.50
2023-05-03T15:41:36.580Z,102383.22
2023-05-03T15:44:39.153Z,102382.50
2023-05-03T15:47:43.157Z,102389.81
2023-05-03T15:50:45.950Z,102375.22
2023-05-03T15:53:48.505Z,102371.66
2023-05-03T15:56:53.163Z,102367.41
2023-05-03T15:59:55.861Z,102369.59
2023-05-03T16:02:59.911Z,102362.03
2023-05-03T16:06:02.856Z,102368.44
2023-05-03T16:09:06.884Z,102363.97
2023-05-03T16:12:09.461Z,102372.19
2023-05-03T16:15:13.040Z,102372.84
2023-05-03T16:18:17.042Z,102373.72
2023-05-03T16:21:19.749Z,102369.31
2023-05-03T16:24:22.454Z,102358.72
2023-05-03T16:27:25.049Z,102364.03
2023-05-03T16:30:27.773Z,102366.22
2023-05-03T16:33:31.701Z,102360.88
2023-05-03T16:36:34.439Z,102364.25
2023-05-03T16:39:37.523Z,102361.44
2023-05-03T16:42:40.814Z,102354.44
2023-05-03T16:45:43.447Z,102350.00
2023-05-03T16:48:48.097Z,102349.56
2023-05-03T16:51:50.752Z,102349.13
2023-05-03T16:54:53.350Z,102341.59
2023-05-03T16:57:55.923Z,102339.41
2023-05-03T17:00:58.537Z,102343.94
2023-05-03T17:04:04.481Z,102346.13
2023-05-03T17:07:07.112Z,102340.06
2023-05-03T17:10:10.574Z,102341.47
2023-05-03T17:13:13.494Z,102337.44
2023-05-03T17:16:16.226Z,102344.13
2023-05-03T17:19:20.775Z,102330.56
2023-05-03T17:22:23.362Z,102338.13
2023-05-03T17:25:25.917Z,102336.91
2023-05-03T17:28:28.531Z,102334.94
2023-05-03T17:31:31.138Z,102329.66
2023-05-03T17:34:35.534Z,102338.13
2023-05-03T17:37:38.501Z,102329.50
2023-05-03T17:40:43.096Z,102331.13
2023-05-03T17:43:45.684Z,102320.22
2023-05-03T17:46:48.551Z,102323.03
2023-05-03T17:49:52.536Z,102324.63
2023-05-03T17:52:55.813Z,102323.16
2023-05-03T17:55:58.750Z,102321.59
2023-05-03T17:59:01.844Z,102315.38
2023-05-03T18:02:05.177Z,102318.25
2023-05-03T18:05:10.065Z,102318.28
2023-05-03T18:08:13.153Z,102329.09
2023-05-03T18:11:15.985Z,102321.97
2023-05-03T18:14:18.601Z,102323.28
2023-05-03T18:17:21.353Z,102327.16
2023-05-03T18:20:25.319Z,102330.66
2023-05-03T18:23:27.959Z,102329.31
2023-05-03T18:26:30.561Z,102336.22
2023-05-03T18:29:33.125Z,102340.13
2023-05-03T18:32:36.021Z,102344.91
2023-05-03T18:35:40.075Z,102338.66
2023-05-03T18:38:42.883Z,102336.41
2023-05-03T18:41:45.491Z,102341.72
2023-05-03T18:44:48.057Z,102343.91
2023-05-03T18:47:51.044Z,102345.88
2023-05-03T18:50:55.212Z,102340.97
2023-05-03T18:53:59.619Z,102357.97
2023-05-03T18:57:02.706Z,102347.78
2023-05-03T19:00:06.415Z,102340.84
2023-05-03T19:03:09.024Z,102347.34
2023-05-03T19:06:12.988Z,102348.41
2023-05-03T19:09:16.263Z,102358.50
2023-05-03T19:12:18.878Z,102354.09
2023-05-03T19:15:21.633Z,102356.25
2023-05-03T19:18:24.318Z,102364.38
2023-05-03T19:21:28.470Z,102367.22
2023-05-03T19:24:31.335Z,102369.06
2023-05-03T19:27:34.173Z,102377.78
2023-05-03T19:30:36.808Z,102376.03
2023-05-03T19:33:39.456Z,102384.94
2023-05-03T19:36:43.408Z,102390.91
2023-05-03T19:39:46.175Z,102387.66
2023-05-03T19:42:50.438Z,102384.19
2023-05-03T19:45:53.642Z,102382.47
2023-05-03T19:48:56.299Z,102385.31
2023-05-03T19:52:01.903Z,102389.19
2023-05-03T19:55:07.099Z,102378.88
2023-05-03T19:58:09.801Z,102376.47
2023-05-03T20:01:12.386Z,102381.88
2023-05-03T20:04:15.077Z,102385.47
2023-05-03T20:07:19.039Z,102387.44
2023-05-03T20:10:21.622Z,102391.97
2023-05-03T20:13:26.165Z,102389.50
2023-05-03T20:19:35.370Z,102385.25
2023-05-03T20:22:39.430Z,102382.78
2023-05-03T20:25:42.032Z,102385.53
2023-05-03T20:28:44.613Z,102382.06
2023-05-03T20:31:48.508Z,102390.06
2023-05-03T20:34:51.430Z,102393.56
2023-05-03T20:37:55.407Z,102393.66
2023-05-03T20:40:58.087Z,102398.09
2023-05-03T20:44:00.659Z,102405.25
2023-05-03T20:47:03.227Z,102400.94
2023-05-03T20:50:07.147Z,102393.19
2023-05-03T20:53:11.323Z,102396.72
2023-05-03T20:56:13.904Z,102392.34
2023-05-03T20:59:16.960Z,102395.00
2023-05-03T21:02:19.605Z,102398.69
2023-05-03T21:05:22.466Z,102389.97
2023-05-03T21:08:26.782Z,102393.38
2023-05-03T21:11:29.384Z,102391.84
2023-05-03T21:14:31.994Z,102391.00
2023-05-03T21:17:34.800Z,102390.09
2023-05-03T21:20:38.242Z,102384.00
2023-05-03T21:23:42.239Z,102388.34
2023-05-03T21:26:44.828Z,102392.88
2023-05-03T21:29:47.386Z,102394.66
2023-05-03T21:32:50.501Z,102392.91
2023-05-03T21:35:53.135Z,102390.31
2023-05-03T21:38:57.865Z,102386.78
2023-05-03T21:42:00.444Z,102393.06
2023-05-03T21:45:03.149Z,102386.94
2023-05-03T21:48:06.396Z,102385.25
2023-05-03T21:51:09.050Z,102389.66
2023-05-03T21:54:13.008Z,102385.31
2023-05-03T21:57:16.010Z,102380.09
2023-05-03T22:00:20.678Z,102371.28
2023-05-03T22:03:23.524Z,102384.56
2023-05-03T22:06:26.727Z,102381.88
2023-05-03T22:09:30.779Z,102376.53
2023-05-03T22:12:33.899Z,102379.28
2023-05-03T22:15:36.539Z,102380.09
2023-05-03T22:18:39.276Z,102380.13
2023-05-03T22:21:42.364Z,102375.72
2023-05-03T22:24:46.380Z,102374.84
2023-05-03T22:27:48.968Z,102369.56
2023-05-03T22:30:51.965Z,102368.69
2023-05-03T22:33:54.631Z,102370.59
2023-05-03T22:36:57.201Z,102362.66
2023-05-03T22:40:01.552Z,102360.06
2023-05-03T22:43:04.302Z,102367.16
2023-05-03T22:46:07.182Z,102376.03
2023-05-03T22:49:09.838Z,102373.38
2023-05-03T22:52:12.435Z,102354.88
2023-05-03T22:55:16.569Z,102355.75
2023-05-03T22:58:19.217Z,102355.84
2023-05-03T23:01:22.010Z,102353.19
2023-05-03T23:04:24.607Z,102351.50
2023-05-03T23:07:28.141Z,102352.34
2023-05-03T23:10:32.087Z,102345.31
2023-05-03T23:13:34.646Z,102353.31
2023-05-03T23:16:37.306Z,102349.84
2023-05-03T23:19:39.916Z,102347.16
2023-05-03T23:22:42.520Z,102348.97
2023-05-03T23:25:46.535Z,102341.06
2023-05-03T23:28:49.622Z,102344.56
2023-05-03T23:31:52.772Z,102341.09
2023-05-03T23:34:55.890Z,102341.97
2023-05-03T23:37:58.462Z,102342.88
2023-05-03T23:41:02.434Z,102342.00
2023-05-03T23:44:05.307Z,102344.66
2023-05-03T23:47:08.010Z,102342.88
2023-05-03T23:50:11.256Z,102335.00
2023-05-03T23:53:13.861Z,102337.59
2023-05-03T23:56:17.844Z,102333.22
2023-05-03T23:59:20.432Z,102333.16
